Time;durP1;ratioP1;P1;durP2;ratioP2;P2;SDS_P1;SDS_P2;PMS_P1;PMS_P2;Temp;Humidity;BMP_temperature;BMP_pressure;BME280_temperature;BME280_humidity;BME280_pressure;Samples;Min_cycle;Max_cycle;Signal;HPM_P1;HPM_P2
2023/10/23 00:01:39;;;;;;;19.70;11.10;;;12.00;99.90;;;;;;4938285;28;20053;-76
2023/10/23 00:04:07;;;;;;;19.77;9.93;;;12.00;99.90;;;;;;4943594;28;22523;-76
2023/10/23 00:06:35;;;;;;;18.45;9.80;;;12.00;99.90;;;;;;4944154;28;20522;-76
2023/10/23 00:09:02;;;;;;;16.90;10.63;;;12.00;99.90;;;;;;4928057;28;20865;-76
2023/10/23 00:11:31;;;;;;;18.10;10.30;;;11.90;99.90;;;;;;4960363;28;20426;-76
2023/10/23 00:13:59;;;;;;;18.55;10.27;;;12.00;99.90;;;;;;4960171;28;20058;-76
2023/10/23 00:16:26;;;;;;;19.52;10.77;;;11.90;99.90;;;;;;4955160;28;20046;-76
2023/10/23 00:18:53;;;;;;;19.00;10.18;;;11.90;99.90;;;;;;4938027;28;20088;-76
2023/10/23 00:21:21;;;;;;;22.67;11.80;;;11.90;99.90;;;;;;4920620;28;22023;-76
2023/10/23 00:23:49;;;;;;;23.05;12.10;;;11.90;99.90;;;;;;4943047;28;20049;-75
2023/10/23 00:26:17;;;;;;;17.88;10.15;;;11.80;99.90;;;;;;4945948;28;20046;-76
2023/10/23 00:28:49;;;;;;;23.65;11.15;;;11.90;99.90;;;;;;4956156;28;20041;-75
2023/10/23 00:31:16;;;;;;;17.25;9.68;;;11.80;99.90;;;;;;4953188;28;20055;-75
2023/10/23 00:33:44;;;;;;;21.05;10.73;;;11.80;99.90;;;;;;4941047;28;20928;-76
2023/10/23 00:36:11;;;;;;;17.95;10.07;;;11.80;99.90;;;;;;4921209;28;20937;-76
2023/10/23 00:38:38;;;;;;;20.48;10.63;;;11.70;99.90;;;;;;4943420;28;20058;-76
2023/10/23 00:41:05;;;;;;;15.90;9.52;;;11.80;99.90;;;;;;4927539;28;20042;-75
2023/10/23 00:43:34;;;;;;;18.70;10.15;;;11.70;99.90;;;;;;4974641;28;20429;-76
2023/10/23 00:46:05;;;;;;;18.38;10.13;;;11.70;99.90;;;;;;4927272;28;20050;-76
2023/10/23 00:48:33;;;;;;;18.07;9.30;;;11.60;99.90;;;;;;4926152;28;20671;-76
2023/10/23 00:51:01;;;;;;;18.23;10.20;;;11.70;99.90;;;;;;4957522;28;20133;-76
2023/10/23 00:53:35;;;;;;;15.30;9.50;;;11.70;99.90;;;;;;4934579;28;20520;-76
2023/10/23 00:56:06;;;;;;;15.65;8.70;;;11.60;99.90;;;;;;4946487;28;20156;-75
2023/10/23 00:58:38;;;;;;;15.23;8.98;;;11.60;99.90;;;;;;4926619;28;20145;-75
2023/10/23 01:01:07;;;;;;;16.13;8.70;;;11.60;99.90;;;;;;4925502;28;20060;-75
2023/10/23 01:03:34;;;;;;;16.85;8.95;;;11.60;99.90;;;;;;4954644;28;20046;-75
2023/10/23 01:06:02;;;;;;;13.90;7.93;;;11.60;99.90;;;;;;4959939;28;20120;-75
2023/10/23 01:08:30;;;;;;;15.32;7.97;;;11.60;99.90;;;;;;4941706;28;20085;-75
2023/10/23 01:10:59;;;;;;;14.63;7.45;;;11.60;99.90;;;;;;4944744;28;22255;-75
2023/10/23 01:13:26;;;;;;;14.93;7.93;;;11.60;99.90;;;;;;4927352;28;20140;-76
2023/10/23 01:15:54;;;;;;;14.70;8.15;;;11.50;99.90;;;;;;4943780;28;20058;-76
2023/10/23 01:18:21;;;;;;;19.42;7.68;;;11.50;99.90;;;;;;4941592;28;20050;-76
2023/10/23 01:20:48;;;;;;;13.23;7.40;;;11.50;99.90;;;;;;4958177;28;20585;-76
2023/10/23 01:23:16;;;;;;;15.57;7.68;;;11.50;99.90;;;;;;4960147;28;20051;-76
2023/10/23 01:25:43;;;;;;;14.50;7.72;;;11.60;99.90;;;;;;4974324;28;20042;-76
2023/10/23 01:28:10;;;;;;;14.98;8.40;;;11.50;99.90;;;;;;4942030;28;20051;-76
2023/10/23 01:30:38;;;;;;;11.60;7.10;;;11.50;99.90;;;;;;4942175;28;20549;-76
2023/10/23 01:33:05;;;;;;;15.27;7.53;;;11.50;99.90;;;;;;4961995;28;20054;-76
2023/10/23 01:35:32;;;;;;;11.82;7.88;;;11.40;99.90;;;;;;4942038;28;20062;-76
2023/10/23 01:37:59;;;;;;;14.02;6.93;;;11.50;99.90;;;;;;4952955;28;20058;-75
2023/10/23 01:40:27;;;;;;;14.50;7.60;;;11.40;99.90;;;;;;4950868;28;20196;-76
2023/10/23 01:42:54;;;;;;;12.55;7.93;;;11.30;99.90;;;;;;4941674;28;20733;-76
2023/10/23 01:45:21;;;;;;;13.60;7.63;;;11.30;99.90;;;;;;4941525;28;20046;-76
2023/10/23 01:47:48;;;;;;;16.13;8.40;;;11.30;99.90;;;;;;4942383;28;22884;-76
2023/10/23 01:50:15;;;;;;;19.05;8.95;;;11.40;99.90;;;;;;4943159;28;20047;-76
2023/10/23 01:52:44;;;;;;;21.52;11.10;;;11.30;99.90;;;;;;4941794;28;20050;-76
2023/10/23 01:55:12;;;;;;;21.48;11.15;;;11.30;99.90;;;;;;4941077;28;20089;-76
2023/10/23 01:57:39;;;;;;;18.50;11.23;;;11.30;99.90;;;;;;4941898;28;20074;-76
2023/10/23 02:00:07;;;;;;;18.42;10.82;;;11.30;99.90;;;;;;4950391;28;20042;-76
2023/10/23 02:02:41;;;;;;;19.45;9.98;;;11.30;99.90;;;;;;4941893;28;20046;-76
2023/10/23 02:05:08;;;;;;;15.02;8.82;;;11.30;99.90;;;;;;4943400;28;20596;-76
2023/10/23 02:07:35;;;;;;;20.20;9.93;;;11.20;99.90;;;;;;4941201;28;20046;-75
2023/10/23 02:10:03;;;;;;;17.00;8.88;;;11.20;99.90;;;;;;4954622;28;20057;-75
2023/10/23 02:12:32;;;;;;;16.77;8.43;;;11.20;99.90;;;;;;4973625;28;20533;-75
2023/10/23 02:14:59;;;;;;;14.05;7.63;;;11.20;99.90;;;;;;4940944;28;22195;-75
2023/10/23 02:17:26;;;;;;;12.98;7.55;;;11.20;99.90;;;;;;4934532;28;20794;-75
2023/10/23 02:19:54;;;;;;;14.95;8.20;;;11.20;99.90;;;;;;4950911;28;20432;-75
2023/10/23 02:22:21;;;;;;;12.70;7.13;;;11.20;99.90;;;;;;4940206;28;20104;-75
2023/10/23 02:24:48;;;;;;;13.13;7.88;;;11.20;99.90;;;;;;4941921;28;22838;-75
2023/10/23 02:27:15;;;;;;;14.20;7.25;;;11.10;99.90;;;;;;4936507;28;20101;-75
2023/10/23 02:29:43;;;;;;;12.27;7.25;;;11.20;99.90;;;;;;4941835;28;20644;-75
2023/10/23 02:32:11;;;;;;;13.20;6.97;;;11.10;99.90;;;;;;4934778;28;20053;-75
2023/10/23 02:34:38;;;;;;;14.13;7.57;;;11.00;99.90;;;;;;4940398;28;20483;-75
2023/10/23 02:37:07;;;;;;;11.25;6.82;;;11.00;99.90;;;;;;4951365;28;20116;-75
2023/10/23 02:39:35;;;;;;;14.02;7.53;;;10.90;99.90;;;;;;4973330;28;20806;-75
2023/10/23 02:42:02;;;;;;;13.20;7.10;;;11.00;99.90;;;;;;4935483;28;20046;-75
2023/10/23 02:44:29;;;;;;;12.35;6.28;;;11.00;99.90;;;;;;4924727;28;20066;-75
2023/10/23 02:46:57;;;;;;;12.68;7.05;;;11.00;99.90;;;;;;4935647;28;20054;-75
2023/10/23 02:49:25;;;;;;;11.02;6.35;;;11.00;99.90;;;;;;4951186;28;20125;-75
2023/10/23 02:51:52;;;;;;;13.82;6.78;;;11.00;99.90;;;;;;4952561;28;20059;-75
2023/10/23 02:54:19;;;;;;;13.20;6.00;;;11.00;99.90;;;;;;4954806;28;20468;-75
2023/10/23 02:56:46;;;;;;;12.18;6.40;;;11.00;99.90;;;;;;4936257;28;20077;-75
2023/10/23 02:59:14;;;;;;;12.20;5.80;;;11.00;99.90;;;;;;4954731;28;20069;-75
2023/10/23 03:01:41;;;;;;;10.68;5.65;;;11.10;99.90;;;;;;4946743;28;20134;-75
2023/10/23 03:04:08;;;;;;;11.93;5.95;;;11.00;99.90;;;;;;4940669;28;20549;-76
2023/10/23 03:06:35;;;;;;;12.25;5.72;;;11.00;99.90;;;;;;4956812;28;20050;-75
2023/10/23 03:09:03;;;;;;;11.98;5.68;;;11.00;99.90;;;;;;4939843;28;20059;-75
2023/10/23 03:11:31;;;;;;;11.07;5.78;;;11.00;99.90;;;;;;4963490;28;20398;-76
2023/10/23 03:13:59;;;;;;;12.20;6.40;;;11.00;99.90;;;;;;4947195;28;20054;-76
2023/10/23 03:16:26;;;;;;;10.45;5.68;;;11.00;99.90;;;;;;4955272;28;20907;-76
2023/10/23 03:18:53;;;;;;;8.80;5.55;;;10.90;99.90;;;;;;4939690;28;20066;-76
2023/10/23 03:21:22;;;;;;;11.38;6.20;;;11.00;99.90;;;;;;4947150;28;20101;-76
2023/10/23 03:23:50;;;;;;;10.77;6.07;;;11.00;99.90;;;;;;4926860;28;20054;-75
2023/10/23 03:26:17;;;;;;;11.60;5.53;;;10.90;99.90;;;;;;4945400;28;20180;-75
2023/10/23 03:28:45;;;;;;;12.75;5.75;;;10.90;99.90;;;;;;4955900;28;20055;-75
2023/10/23 03:31:12;;;;;;;10.80;5.75;;;10.90;99.90;;;;;;4939827;28;20050;-75
2023/10/23 03:33:40;;;;;;;8.75;5.15;;;11.00;99.90;;;;;;4946812;28;20762;-75
2023/10/23 03:36:07;;;;;;;11.70;5.50;;;10.90;99.90;;;;;;4941109;28;20065;-75
2023/10/23 03:38:34;;;;;;;10.10;5.78;;;10.90;99.90;;;;;;4944938;28;20417;-75
2023/10/23 03:41:02;;;;;;;9.25;5.20;;;10.90;99.90;;;;;;4981775;28;20133;-75
2023/10/23 03:43:29;;;;;;;9.85;5.65;;;10.90;99.90;;;;;;4960308;28;20049;-75
2023/10/23 03:46:00;;;;;;;12.02;6.35;;;10.80;99.90;;;;;;4954092;28;20180;-75
2023/10/23 03:48:28;;;;;;;12.38;6.35;;;10.90;99.90;;;;;;4943101;28;20042;-75
2023/10/23 03:50:59;;;;;;;10.82;5.93;;;10.90;99.90;;;;;;4961980;28;20054;-75
2023/10/23 03:53:26;;;;;;;11.85;7.15;;;10.90;99.90;;;;;;4957927;28;20058;-75
2023/10/23 03:55:53;;;;;;;11.02;7.22;;;10.90;99.90;;;;;;4944375;28;20513;-75
2023/10/23 03:58:21;;;;;;;16.02;6.65;;;10.90;99.90;;;;;;4943858;28;22217;-76
2023/10/23 04:00:52;;;;;;;13.75;7.78;;;10.90;99.90;;;;;;4938361;28;20050;-76
2023/10/23 04:03:20;;;;;;;16.13;8.90;;;10.80;99.90;;;;;;4953319;28;20533;-76
2023/10/23 04:05:47;;;;;;;12.18;7.40;;;10.80;99.90;;;;;;4944556;28;20050;-76
2023/10/23 04:08:15;;;;;;;13.55;8.07;;;10.80;99.90;;;;;;4975849;28;20050;-75
2023/10/23 04:10:46;;;;;;;18.27;10.55;;;10.80;99.90;;;;;;4980251;28;20264;-76
2023/10/23 04:13:14;;;;;;;15.75;9.95;;;10.80;99.90;;;;;;4970595;28;20050;-75
2023/10/23 04:15:54;;;;;;;15.45;8.93;;;10.80;99.90;;;;;;4978500;28;20050;-75
2023/10/23 04:18:24;;;;;;;14.07;9.40;;;10.70;99.90;;;;;;4944194;28;20054;-75
2023/10/23 04:21:08;;;;;;;13.77;8.95;;;10.60;99.90;;;;;;4944616;28;20054;-75
2023/10/23 04:23:39;;;;;;;12.55;7.88;;;10.70;99.90;;;;;;4938459;28;20874;-75
2023/10/23 04:26:07;;;;;;;13.70;8.07;;;10.70;99.90;;;;;;4960249;28;20121;-75
2023/10/23 04:28:36;;;;;;;12.75;8.13;;;10.60;99.90;;;;;;4968141;28;20516;-75
2023/10/23 04:31:03;;;;;;;18.40;8.50;;;10.70;99.90;;;;;;4927562;28;20094;-75
2023/10/23 04:33:31;;;;;;;13.50;7.35;;;10.70;99.90;;;;;;4939525;28;20514;-75
2023/10/23 04:35:59;;;;;;;13.75;8.40;;;10.70;99.90;;;;;;4945464;28;20179;-75
2023/10/23 04:38:26;;;;;;;14.63;8.00;;;10.60;99.90;;;;;;4946841;28;20054;-75
2023/10/23 04:40:54;;;;;;;13.23;7.43;;;10.70;99.90;;;;;;4960540;28;20053;-75
2023/10/23 04:43:21;;;;;;;12.68;7.20;;;10.60;99.90;;;;;;4953669;28;20713;-75
2023/10/23 04:45:48;;;;;;;12.15;7.70;;;10.60;99.90;;;;;;4951574;28;20428;-76
2023/10/23 04:48:16;;;;;;;12.63;7.97;;;10.60;99.90;;;;;;4946890;28;20181;-76
2023/10/23 04:50:43;;;;;;;13.93;8.13;;;10.60;99.90;;;;;;4959210;28;20057;-76
2023/10/23 04:53:10;;;;;;;14.85;8.10;;;10.50;99.90;;;;;;4946062;28;20060;-76
2023/10/23 04:55:38;;;;;;;16.63;8.70;;;10.50;99.90;;;;;;4945351;28;20049;-76
2023/10/23 04:58:07;;;;;;;13.93;7.88;;;10.50;99.90;;;;;;4939656;28;20139;-76
2023/10/23 05:00:36;;;;;;;14.55;8.00;;;10.50;99.90;;;;;;4966223;28;20081;-76
2023/10/23 05:03:04;;;;;;;12.45;7.13;;;10.50;99.90;;;;;;4960160;28;20046;-76
2023/10/23 05:05:32;;;;;;;13.10;8.45;;;10.50;99.90;;;;;;4945083;28;20046;-76
2023/10/23 05:08:00;;;;;;;13.02;7.88;;;10.50;99.90;;;;;;4936590;28;20073;-76
2023/10/23 05:10:27;;;;;;;13.55;8.27;;;10.50;99.90;;;;;;4952631;28;20080;-76
2023/10/23 05:12:55;;;;;;;13.18;7.18;;;10.50;99.90;;;;;;4944723;28;22465;-76
2023/10/23 05:15:22;;;;;;;12.90;7.78;;;10.50;99.90;;;;;;4957799;28;20054;-76
2023/10/23 05:17:49;;;;;;;13.88;7.70;;;10.50;99.90;;;;;;4959261;28;20068;-76
2023/10/23 05:20:16;;;;;;;12.80;7.88;;;10.60;99.90;;;;;;4952321;28;20173;-76
2023/10/23 05:22:43;;;;;;;12.85;7.75;;;10.50;99.90;;;;;;4951286;28;20506;-76
2023/10/23 05:25:11;;;;;;;12.75;7.43;;;10.50;99.90;;;;;;4935349;28;20061;-75
2023/10/23 05:27:38;;;;;;;12.38;7.10;;;10.60;99.90;;;;;;4947675;28;20062;-75
2023/10/23 05:30:06;;;;;;;14.23;7.15;;;10.70;99.90;;;;;;4951493;28;20077;-75
2023/10/23 05:32:34;;;;;;;19.38;8.25;;;10.70;99.90;;;;;;4957653;28;20438;-75
2023/10/23 05:35:03;;;;;;;16.92;9.13;;;10.70;99.90;;;;;;4959888;28;20587;-76
2023/10/23 05:37:35;;;;;;;14.43;8.00;;;10.80;99.90;;;;;;4980597;28;20117;-75
2023/10/23 05:40:05;;;;;;;15.27;7.60;;;10.70;99.90;;;;;;4943824;28;20104;-76
2023/10/23 05:42:33;;;;;;;12.27;7.32;;;10.80;99.90;;;;;;4937457;28;20046;-76
2023/10/23 05:45:02;;;;;;;14.68;8.30;;;10.90;99.90;;;;;;4962345;28;20042;-76
2023/10/23 05:47:30;;;;;;;14.85;7.53;;;10.80;99.90;;;;;;4946006;28;20057;-76
2023/10/23 05:49:57;;;;;;;15.55;7.75;;;10.90;99.90;;;;;;4941995;28;20058;-76
2023/10/23 05:52:24;;;;;;;17.17;8.52;;;10.80;99.90;;;;;;4925740;28;20121;-76
2023/10/23 05:54:51;;;;;;;17.70;7.90;;;10.80;99.90;;;;;;4956204;28;20525;-76
2023/10/23 05:57:18;;;;;;;14.50;7.97;;;10.90;99.90;;;;;;4933323;28;20116;-76
2023/10/23 05:59:45;;;;;;;17.27;8.05;;;10.90;99.90;;;;;;4940417;28;20058;-76
2023/10/23 06:02:12;;;;;;;14.07;7.55;;;11.00;99.90;;;;;;4946698;28;20054;-75
2023/10/23 06:04:44;;;;;;;15.85;7.85;;;11.00;99.90;;;;;;4964147;28;20050;-75
2023/10/23 06:07:12;;;;;;;15.52;8.00;;;11.10;99.90;;;;;;4942478;28;20054;-75
2023/10/23 06:09:40;;;;;;;17.00;8.48;;;11.10;99.90;;;;;;4948614;28;20049;-75
2023/10/23 06:12:09;;;;;;;16.25;8.13;;;11.10;99.90;;;;;;4959170;28;20049;-75
2023/10/23 06:14:36;;;;;;;15.90;8.15;;;11.10;99.90;;;;;;4940022;28;20054;-75
2023/10/23 06:17:04;;;;;;;16.05;7.90;;;11.20;99.90;;;;;;4956843;28;20050;-75
2023/10/23 06:19:33;;;;;;;16.60;8.25;;;11.20;99.90;;;;;;4951305;28;20096;-75
2023/10/23 06:22:01;;;;;;;13.85;8.18;;;11.20;99.90;;;;;;4934442;28;22231;-75
2023/10/23 06:24:28;;;;;;;17.23;8.30;;;11.20;99.90;;;;;;4948943;28;20148;-75
2023/10/23 06:26:55;;;;;;;15.10;8.73;;;11.30;99.90;;;;;;4951104;28;20521;-75
2023/10/23 06:29:23;;;;;;;16.33;9.13;;;11.30;99.90;;;;;;4941745;28;20141;-75
2023/10/23 06:31:51;;;;;;;18.25;10.02;;;11.30;99.90;;;;;;4942983;28;22244;-75
2023/10/23 06:34:18;;;;;;;18.75;9.82;;;11.30;99.90;;;;;;4923756;28;20054;-75
2023/10/23 06:36:45;;;;;;;17.50;9.70;;;11.40;99.90;;;;;;4925634;28;20185;-75
2023/10/23 06:39:16;;;;;;;17.23;9.75;;;11.40;99.90;;;;;;4941511;28;20065;-75
2023/10/23 06:41:43;;;;;;;16.98;9.30;;;11.50;99.90;;;;;;4946853;28;20176;-76
2023/10/23 06:44:11;;;;;;;17.23;9.10;;;11.50;99.90;;;;;;4950750;28;20108;-76
2023/10/23 06:46:38;;;;;;;14.60;9.90;;;11.50;99.90;;;;;;4944585;28;20076;-76
2023/10/23 06:49:05;;;;;;;18.42;9.45;;;11.60;99.90;;;;;;4952842;28;20085;-76
2023/10/23 06:51:32;;;;;;;19.15;10.18;;;11.60;99.90;;;;;;4948755;28;20046;-76
2023/10/23 06:53:59;;;;;;;19.75;10.25;;;11.80;99.90;;;;;;4930990;28;20417;-76
2023/10/23 06:56:26;;;;;;;19.17;11.88;;;11.80;99.90;;;;;;4928596;28;20061;-76
2023/10/23 06:58:53;;;;;;;17.48;11.10;;;11.80;99.90;;;;;;4938296;28;20061;-76
2023/10/23 07:01:21;;;;;;;19.85;10.68;;;12.00;99.90;;;;;;4937583;28;20494;-75
2023/10/23 07:04:07;;;;;;;17.95;10.32;;;12.10;99.90;;;;;;4954119;28;20047;-75
2023/10/23 07:06:34;;;;;;;18.63;10.02;;;12.20;99.90;;;;;;4959448;28;20749;-75
2023/10/23 07:09:02;;;;;;;13.90;8.85;;;12.30;99.90;;;;;;4956466;28;20963;-75
2023/10/23 07:11:29;;;;;;;17.08;10.00;;;12.30;99.90;;;;;;4946052;28;20050;-75
2023/10/23 07:13:56;;;;;;;17.23;10.18;;;12.40;99.90;;;;;;4945735;28;20057;-75
2023/10/23 07:16:23;;;;;;;23.63;11.27;;;12.50;99.90;;;;;;4923938;28;22152;-76
2023/10/23 07:18:50;;;;;;;19.92;10.80;;;12.60;99.90;;;;;;4946510;28;20486;-77
2023/10/23 07:21:18;;;;;;;17.73;10.40;;;12.70;99.90;;;;;;4947421;28;20054;-76
2023/10/23 07:23:46;;;;;;;17.58;9.90;;;12.70;99.90;;;;;;4946262;28;20077;-74
2023/10/23 07:26:14;;;;;;;17.45;10.32;;;12.90;99.90;;;;;;4956850;28;20777;-75
2023/10/23 07:28:42;;;;;;;19.92;10.85;;;13.00;99.90;;;;;;4967963;28;20096;-75
2023/10/23 07:31:10;;;;;;;17.80;10.25;;;13.00;99.90;;;;;;4943218;28;20082;-75
2023/10/23 07:33:38;;;;;;;15.68;9.38;;;13.20;99.90;;;;;;4932680;28;20054;-75
2023/10/23 07:36:07;;;;;;;15.85;9.55;;;13.20;99.90;;;;;;4942945;28;20388;-75
2023/10/23 07:38:42;;;;;;;15.75;9.55;;;13.30;99.90;;;;;;4953470;28;20313;-75
2023/10/23 07:41:13;;;;;;;13.27;8.07;;;13.30;99.90;;;;;;4956706;28;20843;-75
2023/10/23 07:43:42;;;;;;;17.08;8.93;;;13.40;99.90;;;;;;4944642;28;20188;-75
2023/10/23 07:46:10;;;;;;;13.60;7.85;;;13.50;99.90;;;;;;4924008;28;20450;-75
2023/10/23 07:48:45;;;;;;;15.23;7.78;;;13.50;99.90;;;;;;4957498;28;20061;-75
2023/10/23 07:51:13;;;;;;;11.32;6.75;;;13.50;99.90;;;;;;4938316;28;20046;-75
2023/10/23 07:53:40;;;;;;;12.65;6.72;;;13.50;99.90;;;;;;4947499;28;20059;-75
2023/10/23 07:56:07;;;;;;;11.82;7.13;;;13.60;99.90;;;;;;4952220;28;20591;-75
2023/10/23 07:58:35;;;;;;;10.35;6.93;;;13.70;99.90;;;;;;4926684;28;20054;-75
2023/10/23 08:01:09;;;;;;;9.80;6.20;;;13.80;99.90;;;;;;4956072;28;20133;-76
2023/10/23 08:03:37;;;;;;;12.50;7.22;;;13.80;99.90;;;;;;4937867;28;20050;-76
2023/10/23 08:06:06;;;;;;;11.30;6.10;;;13.80;99.90;;;;;;4952355;28;20709;-76
2023/10/23 08:08:38;;;;;;;11.50;7.18;;;13.90;99.90;;;;;;4927726;28;20603;-76
2023/10/23 08:11:08;;;;;;;9.35;6.35;;;13.90;99.90;;;;;;4958815;28;20057;-76
2023/10/23 08:13:36;;;;;;;11.10;5.55;;;14.10;99.90;;;;;;4942137;28;20061;-76
2023/10/23 08:16:04;;;;;;;9.95;4.82;;;14.20;99.90;;;;;;4934892;28;20076;-75
2023/10/23 08:18:34;;;;;;;8.57;4.93;;;14.30;99.90;;;;;;4943776;28;22832;-75
2023/10/23 08:21:12;;;;;;;8.50;4.10;;;14.40;99.90;;;;;;4934729;28;20140;-75
2023/10/23 08:23:44;;;;;;;16.00;4.43;;;14.50;99.90;;;;;;4940639;28;20201;-77
2023/10/23 08:26:12;;;;;;;11.95;4.30;;;14.50;99.90;;;;;;4926180;28;20062;-75
2023/10/23 08:28:39;;;;;;;7.25;4.18;;;14.60;99.90;;;;;;4943442;28;20410;-75
2023/10/23 08:31:26;;;;;;;7.05;3.88;;;14.60;99.90;;;;;;4928073;28;20042;-75
2023/10/23 08:34:07;;;;;;;7.95;4.68;;;14.70;99.90;;;;;;4926030;28;20085;-75
2023/10/23 08:36:35;;;;;;;7.13;3.42;;;14.70;99.90;;;;;;4940330;28;20050;-75
2023/10/23 08:39:06;;;;;;;4.88;2.95;;;14.70;99.90;;;;;;4941513;28;22208;-75
2023/10/23 08:41:34;;;;;;;5.18;3.13;;;14.90;99.90;;;;;;4934552;28;20084;-75
2023/10/23 08:44:03;;;;;;;6.47;3.53;;;15.00;99.90;;;;;;4964645;28;20042;-75
2023/10/23 08:46:33;;;;;;;5.40;3.10;;;15.20;99.90;;;;;;4955494;28;20140;-76
2023/10/23 08:49:01;;;;;;;5.07;2.90;;;15.20;99.90;;;;;;4956456;28;20100;-76
2023/10/23 08:51:31;;;;;;;4.28;2.53;;;15.40;99.90;;;;;;4952591;28;20406;-75
2023/10/23 08:54:14;;;;;;;3.15;2.03;;;15.40;99.90;;;;;;4940761;28;20057;-76
2023/10/23 08:56:43;;;;;;;4.25;1.80;;;15.50;99.90;;;;;;4934346;28;20073;-75
2023/10/23 08:59:15;;;;;;;3.97;2.05;;;15.50;99.90;;;;;;4942621;28;20101;-75
2023/10/23 09:01:42;;;;;;;4.57;1.80;;;15.60;99.90;;;;;;4941561;28;20058;-75
2023/10/23 09:04:11;;;;;;;4.20;1.92;;;15.80;99.90;;;;;;4963925;28;20694;-75
2023/10/23 09:06:40;;;;;;;5.05;2.10;;;15.90;99.90;;;;;;4938796;28;20138;-75
2023/10/23 09:09:07;;;;;;;4.93;1.70;;;16.00;99.90;;;;;;4966839;28;20046;-75
2023/10/23 09:11:43;;;;;;;3.90;2.00;;;16.00;99.90;;;;;;4941172;28;20077;-77
2023/10/23 09:14:25;;;;;;;3.15;1.60;;;16.10;99.90;;;;;;4941612;28;20485;-76
2023/10/23 09:16:54;;;;;;;4.35;1.30;;;16.10;99.90;;;;;;4941379;28;20061;-75
2023/10/23 09:19:37;;;;;;;2.42;1.30;;;16.10;99.90;;;;;;4957523;28;20059;-77
2023/10/23 09:22:06;;;;;;;2.22;1.10;;;16.20;99.90;;;;;;4957609;28;20526;-75
2023/10/23 09:24:36;;;;;;;1.73;1.08;;;16.20;99.90;;;;;;4957779;28;20042;-75
2023/10/23 09:27:03;;;;;;;3.47;1.60;;;16.30;99.90;;;;;;4957073;28;20046;-75
2023/10/23 09:29:31;;;;;;;2.58;1.02;;;16.30;99.90;;;;;;4932945;28;20101;-75
2023/10/23 09:31:58;;;;;;;3.85;1.30;;;16.40;99.90;;;;;;4956162;28;20736;-76
2023/10/23 09:34:28;;;;;;;2.70;0.77;;;16.60;99.90;;;;;;4940701;28;20100;-75
2023/10/23 09:36:56;;;;;;;3.70;0.90;;;16.60;99.90;;;;;;4940969;28;20534;-75
2023/10/23 09:39:23;;;;;;;2.05;0.77;;;16.70;99.90;;;;;;4923979;28;20517;-75
2023/10/23 09:41:52;;;;;;;3.97;0.80;;;16.70;99.90;;;;;;4950257;28;20046;-76
2023/10/23 09:44:20;;;;;;;3.70;0.90;;;16.70;99.90;;;;;;4950494;28;20088;-76
2023/10/23 09:46:48;;;;;;;4.35;1.00;;;16.80;99.90;;;;;;4938613;28;20046;-76
2023/10/23 09:49:16;;;;;;;5.97;1.60;;;16.90;99.90;;;;;;4935873;28;20069;-76
2023/10/23 09:51:48;;;;;;;2.10;0.90;;;17.00;99.90;;;;;;4957013;28;20054;-75
2023/10/23 09:54:19;;;;;;;2.20;0.73;;;17.10;99.90;;;;;;4941829;28;20685;-76
2023/10/23 09:56:48;;;;;;;3.50;0.68;;;17.00;99.90;;;;;;4950277;28;20149;-76
2023/10/23 09:59:18;;;;;;;2.15;0.65;;;17.00;99.90;;;;;;4942130;28;20058;-77
2023/10/23 10:01:49;;;;;;;2.72;0.40;;;17.20;99.90;;;;;;4938090;28;20066;-76
2023/10/23 10:04:24;;;;;;;2.67;0.38;;;17.20;98.30;;;;;;4946453;28;20735;-76
2023/10/23 10:07:00;;;;;;;1.98;0.20;;;17.20;99.30;;;;;;4930394;28;20042;-75
2023/10/23 10:09:29;;;;;;;1.40;0.75;;;17.40;98.80;;;;;;4948721;28;20047;-75
2023/10/23 10:11:58;;;;;;;1.02;0.30;;;17.40;99.80;;;;;;4939149;28;20406;-75
2023/10/23 10:14:27;;;;;;;1.70;0.30;;;17.40;98.50;;;;;;4937752;28;20077;-76
2023/10/23 10:16:55;;;;;;;1.52;0.28;;;17.50;98.50;;;;;;4931301;28;20049;-75
2023/10/23 10:19:25;;;;;;;2.40;0.28;;;17.50;97.80;;;;;;4952111;28;20058;-76
2023/10/23 10:22:16;;;;;;;1.70;0.40;;;17.50;98.00;;;;;;4936007;28;20058;-75
2023/10/23 10:24:44;;;;;;;2.58;0.30;;;17.70;97.00;;;;;;4936612;28;20197;-75
2023/10/23 10:27:12;;;;;;;1.15;0.20;;;17.70;98.00;;;;;;4920697;28;20088;-76
2023/10/23 10:29:39;;;;;;;1.50;0.30;;;17.70;96.80;;;;;;4967263;28;22157;-75
2023/10/23 10:32:11;;;;;;;4.88;0.57;;;17.70;97.00;;;;;;4929872;28;20565;-75
2023/10/23 10:34:46;;;;;;;0.75;0.20;;;17.70;97.20;;;;;;4935975;28;20069;-75
2023/10/23 10:37:23;;;;;;;3.42;0.43;;;17.60;97.60;;;;;;4935005;28;20046;-75
2023/10/23 10:40:03;;;;;;;1.88;0.45;;;17.80;98.60;;;;;;4940286;28;20046;-75
2023/10/23 10:42:34;;;;;;;1.10;0.30;;;17.70;98.40;;;;;;4946580;28;20050;-77
2023/10/23 10:45:09;;;;;;;1.17;0.60;;;17.70;99.50;;;;;;4952076;28;20101;-75
2023/10/23 10:47:37;;;;;;;1.65;0.32;;;17.80;98.70;;;;;;4922734;28;20056;-75
2023/10/23 10:50:06;;;;;;;3.17;0.40;;;17.80;99.10;;;;;;4942581;28;20735;-76
2023/10/23 10:52:35;;;;;;;3.97;0.50;;;17.70;97.40;;;;;;4934944;28;21052;-75
2023/10/23 10:55:08;;;;;;;3.20;0.80;;;17.70;99.30;;;;;;4940601;28;20500;-76
2023/10/23 10:57:46;;;;;;;6.53;0.63;;;17.90;99.90;;;;;;4938747;28;20058;-76
2023/10/23 11:00:13;;;;;;;1.65;0.57;;;18.00;99.40;;;;;;4954435;28;20534;-75
2023/10/23 11:02:40;;;;;;;3.03;0.95;;;18.00;99.60;;;;;;4937910;28;20516;-75
2023/10/23 11:05:12;;;;;;;7.47;1.20;;;17.90;99.90;;;;;;4954846;28;20092;-75
2023/10/23 11:07:39;;;;;;;6.68;2.83;;;18.00;99.90;;;;;;4950814;28;20105;-75
2023/10/23 11:10:08;;;;;;;5.43;3.60;;;17.90;99.90;;;;;;4950109;28;20180;-75
2023/10/23 11:12:35;;;;;;;3.30;1.90;;;17.80;99.90;;;;;;4937526;28;20608;-74
2023/10/23 11:15:04;;;;;;;2.67;0.50;;;17.80;99.90;;;;;;4939029;28;20502;-75
2023/10/23 11:17:32;;;;;;;3.55;0.70;;;17.80;99.60;;;;;;4950872;28;20050;-75
2023/10/23 11:20:05;;;;;;;3.63;0.55;;;17.90;99.90;;;;;;4945401;28;20147;-75
2023/10/23 11:22:32;;;;;;;1.00;0.40;;;18.10;99.90;;;;;;4952549;28;20053;-75
2023/10/23 11:25:00;;;;;;;3.58;0.52;;;18.00;99.90;;;;;;4937900;28;20421;-75
2023/10/23 11:27:27;;;;;;;2.25;0.40;;;18.00;99.90;;;;;;4961288;28;20047;-76
2023/10/23 11:29:54;;;;;;;1.33;0.20;;;18.00;99.90;;;;;;4952759;28;20054;-75
2023/10/23 11:32:21;;;;;;;1.30;0.20;;;18.00;99.90;;;;;;4927911;28;20077;-76
2023/10/23 11:34:48;;;;;;;0.68;0.20;;;18.00;99.50;;;;;;4944031;28;20054;-76
2023/10/23 11:37:18;;;;;;;2.38;0.20;;;18.10;99.70;;;;;;4958682;28;20054;-76
2023/10/23 11:39:47;;;;;;;1.80;0.20;;;18.20;99.80;;;;;;4945841;28;20073;-78
2023/10/23 11:42:15;;;;;;;1.08;0.10;;;18.30;99.80;;;;;;4941788;28;20521;-77
2023/10/23 11:44:42;;;;;;;1.90;0.17;;;18.40;99.20;;;;;;4965872;28;20561;-78
2023/10/23 11:47:09;;;;;;;0.80;0.10;;;18.30;98.40;;;;;;4956934;28;20069;-76
2023/10/23 11:49:37;;;;;;;0.77;0.10;;;18.20;98.00;;;;;;4948089;28;20057;-76
2023/10/23 11:52:05;;;;;;;1.40;0.20;;;18.20;99.40;;;;;;4940258;28;20573;-76
2023/10/23 11:54:32;;;;;;;1.25;0.20;;;18.20;99.00;;;;;;4945382;28;20517;-79
2023/10/23 11:57:00;;;;;;;1.17;0.10;;;18.30;98.30;;;;;;4925696;28;20622;-77
2023/10/23 11:59:27;;;;;;;3.10;0.20;;;18.20;98.40;;;;;;4952237;28;20494;-78
2023/10/23 12:01:56;;;;;;;2.53;0.20;;;18.20;98.90;;;;;;4959623;28;20058;-77
2023/10/23 12:04:23;;;;;;;3.25;0.15;;;18.20;99.50;;;;;;4943471;28;20077;-77
2023/10/23 12:06:51;;;;;;;1.75;0.20;;;18.30;98.00;;;;;;4943293;28;22065;-77
2023/10/23 12:09:18;;;;;;;3.13;0.10;;;18.30;99.00;;;;;;4926233;28;20050;-77
2023/10/23 12:11:46;;;;;;;1.80;0.20;;;18.30;98.40;;;;;;4952043;28;20074;-76
2023/10/23 12:14:13;;;;;;;1.05;0.10;;;18.30;98.90;;;;;;4930788;28;20054;-79
2023/10/23 12:16:41;;;;;;;2.13;0.30;;;18.30;97.80;;;;;;4943611;28;20050;-77
2023/10/23 12:19:09;;;;;;;0.80;0.50;;;18.20;97.20;;;;;;4938571;28;20034;-77
2023/10/23 12:21:37;;;;;;;1.50;0.20;;;18.20;97.40;;;;;;4957144;28;22177;-77
2023/10/23 12:24:06;;;;;;;0.70;0.10;;;18.30;97.10;;;;;;4925808;28;20260;-77
2023/10/23 12:26:34;;;;;;;1.02;0.17;;;18.20;96.90;;;;;;4945458;28;20054;-77
2023/10/23 12:29:05;;;;;;;0.47;0.10;;;18.30;97.60;;;;;;4978365;28;22256;-78
2023/10/23 12:31:32;;;;;;;0.82;0.10;;;18.20;98.40;;;;;;4942386;28;20133;-77
2023/10/23 12:34:19;;;;;;;3.10;0.32;;;18.30;99.50;;;;;;4943539;28;20207;-77
2023/10/23 12:36:47;;;;;;;1.15;0.20;;;18.30;98.50;;;;;;4952869;28;20157;-77
2023/10/23 12:39:14;;;;;;;2.58;0.50;;;18.30;97.40;;;;;;4937644;28;22191;-77
2023/10/23 12:41:42;;;;;;;2.50;0.20;;;18.30;97.80;;;;;;4945280;28;20116;-76
2023/10/23 12:44:09;;;;;;;2.60;0.20;;;18.20;98.10;;;;;;4952281;28;20058;-77
2023/10/23 12:46:36;;;;;;;2.50;0.40;;;18.20;98.40;;;;;;4942909;28;20133;-77